createdAt,value
2019-06-08T00:00:53.118Z,0
2019-06-08T00:02:03.254Z,0
2019-06-08T00:03:16.655Z,0
2019-06-08T00:04:28.227Z,0
2019-06-08T00:05:38.349Z,0
2019-06-08T00:06:48.451Z,0
2019-06-08T00:07:58.569Z,0
2019-06-08T00:09:08.685Z,0
2019-06-08T00:10:25.771Z,0
2019-06-08T00:11:36.049Z,0
2019-06-08T00:12:46.167Z,0
2019-06-08T00:13:56.312Z,0
2019-06-08T00:15:06.434Z,0
2019-06-08T00:16:19.292Z,0
2019-06-08T00:17:46.903Z,0
2019-06-08T00:18:57.001Z,0
2019-06-08T00:20:07.126Z,0
2019-06-08T00:21:19.603Z,0
2019-06-08T00:22:31.135Z,0
2019-06-08T00:23:41.254Z,0
2019-06-08T00:24:51.471Z,0
2019-06-08T00:26:01.593Z,0
2019-06-08T00:27:11.723Z,0
2019-06-08T00:28:24.787Z,0
2019-06-08T00:29:34.945Z,0
2019-06-08T00:30:46.397Z,0
2019-06-08T00:31:56.522Z,0
2019-06-08T00:33:06.646Z,0
2019-06-08T00:34:16.940Z,0
2019-06-08T00:35:29.697Z,0
2019-06-08T00:36:39.809Z,0
2019-06-08T00:37:49.931Z,0
2019-06-08T00:39:00.070Z,0
2019-06-08T00:40:10.187Z,0
2019-06-08T00:41:23.693Z,0
2019-06-08T00:42:35.258Z,0
2019-06-08T00:43:45.393Z,0
2019-06-08T00:44:55.549Z,0
2019-06-08T00:46:05.713Z,0
2019-06-08T00:47:16.338Z,0
2019-06-08T00:48:29.421Z,0
2019-06-08T00:49:39.532Z,0
2019-06-08T00:50:49.648Z,0
2019-06-08T00:51:59.756Z,0
2019-06-08T00:53:09.876Z,0
2019-06-08T00:54:21.454Z,0
2019-06-08T00:55:32.941Z,0
2019-06-08T00:56:43.116Z,0
2019-06-08T00:57:53.251Z,0
2019-06-08T00:59:03.381Z,0
2019-06-08T01:00:20.716Z,0
2019-06-08T01:01:35.551Z,0
2019-06-08T01:02:45.310Z,0
2019-06-08T01:03:55.423Z,0
2019-06-08T01:05:05.522Z,0
2019-06-08T01:06:15.630Z,0
2019-06-08T01:07:27.086Z,0
2019-06-08T01:08:37.193Z,0
2019-06-08T01:09:47.296Z,0
2019-06-08T01:10:57.433Z,0
2019-06-08T01:12:07.233Z,0
2019-06-08T01:13:18.738Z,0
2019-06-08T01:14:31.528Z,0
2019-06-08T01:15:44.108Z,0
2019-06-08T01:16:54.040Z,0
2019-06-08T01:18:13.410Z,0
2019-06-08T01:19:25.139Z,0
2019-06-08T01:20:36.654Z,0
2019-06-08T01:21:46.760Z,0
2019-06-08T01:22:56.865Z,0
2019-06-08T01:24:06.992Z,0
2019-06-08T01:25:17.200Z,0
2019-06-08T01:26:29.828Z,0
2019-06-08T01:27:40.252Z,0
2019-06-08T01:28:50.386Z,0
2019-06-08T01:30:00.559Z,0
2019-06-08T01:31:10.688Z,0
2019-06-08T01:32:20.843Z,0
2019-06-08T01:33:33.532Z,0
2019-06-08T01:34:43.650Z,0
2019-06-08T01:35:53.766Z,0
2019-06-08T01:37:03.898Z,0
2019-06-08T01:38:14.061Z,0
2019-06-08T01:39:25.428Z,0
2019-06-08T01:40:36.802Z,0
2019-06-08T01:41:46.918Z,0
2019-06-08T01:42:58.034Z,0
2019-06-08T01:44:08.141Z,0
2019-06-08T01:45:18.252Z,0
2019-06-08T01:46:30.665Z,0
2019-06-08T01:47:42.082Z,0
2019-06-08T01:48:52.189Z,0
2019-06-08T01:50:02.300Z,0
2019-06-08T01:51:12.425Z,0
2019-06-08T01:52:22.585Z,0
2019-06-08T01:53:35.384Z,0
2019-06-08T01:54:45.276Z,0
2019-06-08T01:55:55.379Z,0
2019-06-08T01:57:05.481Z,0
2019-06-08T01:58:15.624Z,0
2019-06-08T01:59:25.771Z,0
2019-06-08T02:00:48.646Z,0
2019-06-08T02:01:58.763Z,0
2019-06-08T02:03:08.895Z,0
2019-06-08T02:04:18.997Z,0
2019-06-08T02:05:30.294Z,0
2019-06-08T02:06:41.905Z,0
2019-06-08T02:07:52.009Z,0
2019-06-08T02:09:01.872Z,0
2019-06-08T02:10:12.032Z,0
2019-06-08T02:11:21.939Z,0
2019-06-08T02:12:33.543Z,0
2019-06-08T02:13:44.611Z,0
2019-06-08T02:14:54.724Z,0
2019-06-08T02:16:04.871Z,0
2019-06-08T02:17:14.739Z,0
2019-06-08T02:18:53.157Z,0
2019-06-08T02:20:02.907Z,0
2019-06-08T02:21:13.041Z,0
2019-06-08T02:22:22.902Z,0
2019-06-08T02:23:35.489Z,0
2019-06-08T02:24:46.803Z,0
2019-06-08T02:25:56.905Z,0
2019-06-08T02:27:07.024Z,0
2019-06-08T02:28:17.154Z,0
2019-06-08T02:29:27.467Z,0
2019-06-08T02:30:46.276Z,0
2019-06-08T02:31:57.925Z,0
2019-06-08T02:33:08.078Z,0
2019-06-08T02:34:18.203Z,0
2019-06-08T02:35:28.321Z,0
2019-06-08T02:36:43.313Z,0
2019-06-08T02:37:53.431Z,0
2019-06-08T02:39:03.565Z,0
2019-06-08T02:40:13.677Z,0
2019-06-08T02:41:23.816Z,0
2019-06-08T02:42:40.191Z,0
2019-06-08T02:43:50.473Z,0
2019-06-08T02:45:00.602Z,0
2019-06-08T02:46:10.706Z,0
2019-06-08T02:47:23.663Z,0
2019-06-08T02:48:56.237Z,0
2019-06-08T02:50:10.529Z,0
2019-06-08T02:51:20.733Z,0
2019-06-08T02:52:34.208Z,0
2019-06-08T02:53:48.830Z,0
2019-06-08T02:54:58.962Z,0
2019-06-08T02:56:09.075Z,0
2019-06-08T02:57:19.207Z,0
2019-06-08T02:58:29.720Z,0
2019-06-08T02:59:45.495Z,0
2019-06-08T03:00:55.637Z,0
2019-06-08T03:02:05.757Z,0
2019-06-08T03:03:15.876Z,0
2019-06-08T03:05:46.679Z,0
2019-06-08T03:06:56.817Z,0
2019-06-08T03:08:06.967Z,0
2019-06-08T03:09:17.110Z,0
2019-06-08T03:10:27.262Z,0
2019-06-08T03:11:41.619Z,0
2019-06-08T03:12:52.305Z,0
2019-06-08T03:14:02.420Z,0
2019-06-08T03:15:12.532Z,0
2019-06-08T03:16:22.651Z,0
2019-06-08T03:17:33.967Z,0
2019-06-08T03:18:49.698Z,0
2019-06-08T03:19:59.837Z,5
2019-06-08T03:21:09.975Z,5
2019-06-08T03:22:20.586Z,5
2019-06-08T03:23:31.872Z,5
2019-06-08T03:24:46.657Z,5
2019-06-08T03:26:02.988Z,5
2019-06-08T03:27:13.107Z,5
2019-06-08T03:28:23.236Z,5
2019-06-08T03:29:35.458Z,5
2019-06-08T03:31:01.979Z,10
2019-06-08T03:32:12.201Z,10
2019-06-08T03:33:22.360Z,10
2019-06-08T03:34:35.403Z,10
2019-06-08T03:36:05.289Z,15
2019-06-08T03:37:15.121Z,15
2019-06-08T03:38:25.232Z,10
2019-06-08T03:39:36.911Z,10
2019-06-08T03:40:50.496Z,10
2019-06-08T03:42:00.613Z,15
2019-06-08T03:43:11.572Z,15
2019-06-08T03:44:21.722Z,10
2019-06-08T03:45:31.895Z,10
2019-06-08T03:46:46.535Z,15
2019-06-08T03:49:11.468Z,15
2019-06-08T03:50:21.604Z,15
2019-06-08T03:51:35.161Z,15
2019-06-08T03:52:51.227Z,15
2019-06-08T03:54:01.379Z,15
2019-06-08T03:55:11.521Z,20
2019-06-08T03:56:21.646Z,20
2019-06-08T03:57:31.758Z,20
2019-06-08T03:58:50.175Z,20
2019-06-08T04:00:00.304Z,25
2019-06-08T04:01:10.462Z,25
2019-06-08T04:02:20.587Z,25
2019-06-08T04:03:30.726Z,25
2019-06-08T04:04:46.057Z,25
2019-06-08T04:05:57.373Z,25
2019-06-08T04:07:07.513Z,30
2019-06-08T04:08:17.376Z,30
2019-06-08T04:09:27.536Z,30
2019-06-08T04:10:38.200Z,30
2019-06-08T04:11:55.182Z,35
2019-06-08T04:13:05.350Z,35
2019-06-08T04:14:15.458Z,40
2019-06-08T04:15:25.567Z,45
2019-06-08T04:16:35.675Z,45
2019-06-08T04:17:50.328Z,50
2019-06-08T04:19:00.613Z,55
2019-06-08T04:20:20.561Z,55
2019-06-08T04:21:30.439Z,60
2019-06-08T04:22:42.126Z,60
2019-06-08T04:23:55.586Z,60
2019-06-08T04:25:05.717Z,60
2019-06-08T04:26:15.844Z,55
2019-06-08T04:27:25.966Z,50
2019-06-08T04:28:36.117Z,55
2019-06-08T04:29:52.620Z,50
2019-06-08T04:31:02.790Z,50
2019-06-08T04:32:12.907Z,55
2019-06-08T04:33:23.012Z,55
2019-06-08T04:34:33.133Z,60
2019-06-08T04:35:50.729Z,60
2019-06-08T04:37:00.979Z,55
2019-06-08T04:38:11.123Z,60
2019-06-08T04:39:21.254Z,70
2019-06-08T04:40:31.478Z,75
2019-06-08T04:41:46.927Z,80
2019-06-08T04:43:00.312Z,90
2019-06-08T04:44:10.105Z,100
2019-06-08T04:45:20.230Z,95
2019-06-08T04:46:30.360Z,90
2019-06-08T04:47:43.098Z,85
2019-06-08T04:48:57.057Z,85
2019-06-08T04:50:29.169Z,85
2019-06-08T04:51:42.405Z,115
2019-06-08T04:52:54.821Z,100
2019-06-08T04:54:04.979Z,105
2019-06-08T04:55:15.091Z,110
2019-06-08T04:56:25.220Z,115
2019-06-08T04:57:34.972Z,100
2019-06-08T04:58:53.777Z,95
2019-06-08T05:00:14.287Z,105
2019-06-08T05:01:24.428Z,120
2019-06-08T05:03:03.821Z,120
2019-06-08T05:04:13.958Z,125
2019-06-08T05:05:24.089Z,135
2019-06-08T05:06:34.228Z,135
2019-06-08T05:07:50.544Z,130
2019-06-08T05:09:00.862Z,140
2019-06-08T05:10:11.023Z,145
2019-06-08T05:11:21.158Z,155
2019-06-08T05:12:31.277Z,155
2019-06-08T05:13:43.177Z,145
2019-06-08T05:14:54.738Z,140
2019-06-08T05:16:04.615Z,130
2019-06-08T05:17:14.491Z,125
2019-06-08T05:18:28.340Z,110
2019-06-08T05:19:41.076Z,90
2019-06-08T05:20:57.285Z,75
2019-06-08T05:22:07.416Z,75
2019-06-08T05:23:17.537Z,80
2019-06-08T05:24:27.670Z,95
2019-06-08T05:25:38.984Z,120
2019-06-08T05:26:52.198Z,135
2019-06-08T05:28:02.308Z,140
2019-06-08T05:29:12.435Z,135
2019-06-08T05:30:22.575Z,130
2019-06-08T05:31:32.689Z,130
2019-06-08T05:32:45.519Z,135
2019-06-08T05:33:56.957Z,155
2019-06-08T05:35:07.090Z,170
2019-06-08T05:36:17.225Z,170
2019-06-08T05:37:27.357Z,160
2019-06-08T05:38:37.502Z,160
2019-06-08T05:39:50.187Z,155
2019-06-08T05:41:00.057Z,150
2019-06-08T05:42:10.176Z,130
2019-06-08T05:43:20.393Z,130
2019-06-08T05:44:30.536Z,130
2019-06-08T05:45:41.437Z,135
2019-06-08T05:46:52.912Z,140
2019-06-08T05:48:03.029Z,140
2019-06-08T05:49:13.147Z,135
2019-06-08T05:50:23.275Z,120
2019-06-08T05:51:33.408Z,100
2019-06-08T05:52:45.869Z,70
2019-06-08T05:53:57.453Z,55
2019-06-08T05:55:07.629Z,50
2019-06-08T05:56:17.756Z,40
2019-06-08T05:57:27.873Z,40
2019-06-08T05:58:37.988Z,45
2019-06-08T05:59:50.963Z,45
2019-06-08T06:01:01.127Z,45
2019-06-08T06:02:11.236Z,50
2019-06-08T06:03:21.381Z,50
2019-06-08T06:04:31.521Z,55
2019-06-08T06:05:42.615Z,55
2019-06-08T06:06:54.078Z,60
2019-06-08T06:08:15.674Z,65
2019-06-08T06:09:28.097Z,60
2019-06-08T06:10:38.262Z,55
2019-06-08T06:11:50.978Z,55
2019-06-08T06:13:01.301Z,55
2019-06-08T06:14:11.456Z,50
2019-06-08T06:15:21.616Z,45
2019-06-08T06:16:31.757Z,50
2019-06-08T06:17:44.258Z,60
2019-06-08T06:18:57.192Z,70
2019-06-08T06:20:07.327Z,70
2019-06-08T06:21:21.669Z,80
2019-06-08T06:22:31.825Z,90
2019-06-08T06:23:43.089Z,90
2019-06-08T06:24:54.823Z,85
2019-06-08T06:26:04.732Z,85
2019-06-08T06:27:14.602Z,80
2019-06-08T06:28:24.726Z,70
2019-06-08T06:29:34.871Z,60
2019-06-08T06:30:48.341Z,55
2019-06-08T06:31:59.486Z,60
2019-06-08T06:33:09.622Z,60
2019-06-08T06:34:19.737Z,55
2019-06-08T06:35:29.869Z,55
2019-06-08T06:36:39.769Z,60
2019-06-08T06:37:52.642Z,85
2019-06-08T06:39:02.775Z,100
2019-06-08T06:40:12.910Z,105
2019-06-08T06:41:23.044Z,100
2019-06-08T06:42:34.735Z,100
2019-06-08T06:43:46.349Z,105
2019-06-08T06:44:57.799Z,115
2019-06-08T06:46:07.671Z,130
2019-06-08T06:47:17.797Z,150
2019-06-08T06:48:30.717Z,185
2019-06-08T06:49:42.275Z,210
2019-06-08T06:50:53.505Z,220
2019-06-08T06:52:03.640Z,215
2019-06-08T06:53:13.774Z,200
2019-06-08T06:54:23.911Z,200
2019-06-08T06:55:35.199Z,195
2019-06-08T06:56:45.586Z,195
2019-06-08T06:57:58.349Z,205
2019-06-08T06:59:08.493Z,240
2019-06-08T07:00:18.647Z,255
2019-06-08T07:01:28.766Z,230
2019-06-08T07:02:38.909Z,220
2019-06-08T07:03:50.343Z,190
2019-06-08T07:05:02.094Z,180
2019-06-08T07:06:12.291Z,170
2019-06-08T07:07:22.414Z,185
2019-06-08T07:08:32.757Z,220
2019-06-08T07:09:44.279Z,250
2019-06-08T07:10:56.009Z,260
2019-06-08T07:12:06.489Z,230
2019-06-08T07:13:16.615Z,180
2019-06-08T07:14:26.495Z,165
2019-06-08T07:15:44.838Z,160
2019-06-08T07:16:56.754Z,155
2019-06-08T07:18:07.667Z,145
2019-06-08T07:19:17.820Z,150
2019-06-08T07:20:27.955Z,135
2019-06-08T07:21:53.017Z,155
2019-06-08T07:23:03.879Z,170
2019-06-08T07:24:14.005Z,185
2019-06-08T07:25:24.147Z,200
2019-06-08T07:26:34.325Z,185
2019-06-08T07:27:44.453Z,170
2019-06-08T07:28:58.924Z,185
2019-06-08T07:30:09.350Z,200
2019-06-08T07:31:20.464Z,205
2019-06-08T07:32:30.598Z,205
2019-06-08T07:33:40.834Z,225
2019-06-08T07:34:53.660Z,240
2019-06-08T07:36:04.950Z,260
2019-06-08T07:37:15.099Z,270
2019-06-08T07:38:25.239Z,285
2019-06-08T07:39:35.388Z,290
2019-06-08T07:40:45.537Z,295
2019-06-08T07:41:59.994Z,310
2019-06-08T07:43:10.252Z,310
2019-06-08T07:44:20.377Z,305
2019-06-08T07:45:30.520Z,305
2019-06-08T07:46:40.649Z,305
2019-06-08T07:47:51.700Z,270
2019-06-08T07:49:03.742Z,250
2019-06-08T07:50:14.571Z,265
2019-06-08T07:51:24.698Z,270
2019-06-08T07:52:34.897Z,275
2019-06-08T07:53:45.007Z,295
2019-06-08T07:54:59.069Z,305
2019-06-08T07:56:09.560Z,325
2019-06-08T07:57:19.429Z,315
2019-06-08T07:58:29.607Z,310
2019-06-08T07:59:39.508Z,320
2019-06-08T08:00:50.354Z,315
2019-06-08T08:02:03.690Z,310
2019-06-08T08:03:13.808Z,355
2019-06-08T08:04:23.955Z,320
2019-06-08T08:05:34.097Z,295
2019-06-08T08:06:44.250Z,270
2019-06-08T08:07:56.852Z,265
2019-06-08T08:09:08.529Z,220
2019-06-08T08:10:19.518Z,240
2019-06-08T08:11:29.765Z,225
2019-06-08T08:12:39.909Z,250
2019-06-08T08:13:54.824Z,320
2019-06-08T08:15:06.900Z,320
2019-06-08T08:16:17.061Z,375
2019-06-08T08:17:27.182Z,425
2019-06-08T08:18:37.332Z,450
2019-06-08T08:19:48.906Z,445
2019-06-08T08:21:21.987Z,465
2019-06-08T08:22:38.144Z,405
2019-06-08T08:23:51.738Z,325
2019-06-08T08:25:12.978Z,290
2019-06-08T08:26:23.117Z,270
2019-06-08T08:27:37.363Z,285
2019-06-08T08:28:49.000Z,295
2019-06-08T08:30:04.881Z,305
2019-06-08T08:31:21.017Z,320
2019-06-08T08:32:33.214Z,365
2019-06-08T08:33:44.965Z,360
2019-06-08T08:35:03.287Z,385
2019-06-08T08:36:14.570Z,380
2019-06-08T08:37:28.083Z,425
2019-06-08T08:38:41.144Z,450
2019-06-08T08:39:53.502Z,395
2019-06-08T08:41:18.084Z,455
2019-06-08T08:42:30.246Z,550
2019-06-08T08:43:42.642Z,425
2019-06-08T08:44:56.219Z,585
2019-06-08T08:46:12.529Z,995
2019-06-08T08:47:23.563Z,635
2019-06-08T08:48:40.221Z,570
2019-06-08T08:49:54.329Z,1320
2019-06-08T08:51:11.071Z,435
2019-06-08T08:52:39.952Z,495
2019-06-08T08:53:54.364Z,510
2019-06-08T08:55:10.795Z,520
2019-06-08T08:56:23.000Z,450
2019-06-08T08:57:33.728Z,410
2019-06-08T08:58:47.649Z,380
2019-06-08T09:00:11.052Z,410
2019-06-08T09:01:25.171Z,850
2019-06-08T09:02:39.830Z,720
2019-06-08T09:03:52.144Z,430
2019-06-08T09:05:13.407Z,540
2019-06-08T09:06:27.814Z,720
2019-06-08T09:07:40.832Z,435
2019-06-08T09:08:55.654Z,785
2019-06-08T09:10:18.111Z,1280
2019-06-08T09:11:31.240Z,1340
2019-06-08T09:12:42.566Z,1655
2019-06-08T09:13:59.144Z,700
2019-06-08T09:15:15.913Z,1195
2019-06-08T09:16:28.706Z,465
2019-06-08T09:17:41.233Z,450
2019-06-08T09:18:55.733Z,585
2019-06-08T09:20:19.484Z,775
2019-06-08T09:21:30.575Z,1890
2019-06-08T09:23:21.511Z,495
2019-06-08T09:24:33.526Z,795
2019-06-08T09:25:52.655Z,760
2019-06-08T09:27:12.688Z,530
2019-06-08T09:28:28.354Z,860
2019-06-08T09:29:41.112Z,1500
2019-06-08T09:30:54.442Z,1435
2019-06-08T09:32:12.903Z,670
2019-06-08T09:33:28.635Z,650
2019-06-08T09:34:41.157Z,625
2019-06-08T09:35:53.479Z,475
2019-06-08T09:37:12.769Z,2200
2019-06-08T09:38:28.477Z,695
2019-06-08T09:39:41.094Z,2215
2019-06-08T09:40:57.386Z,2175
2019-06-08T09:42:13.929Z,1725
2019-06-08T09:43:28.742Z,585
2019-06-08T09:44:40.205Z,2385
2019-06-08T09:45:54.106Z,2335
2019-06-08T09:47:18.073Z,790
2019-06-08T09:48:31.170Z,330
2019-06-08T09:49:42.591Z,330
2019-06-08T09:50:53.539Z,350
2019-06-08T09:52:11.247Z,340
2019-06-08T09:53:47.602Z,320
2019-06-08T09:55:06.782Z,390
2019-06-08T09:56:21.056Z,410
2019-06-08T09:57:33.062Z,320
2019-06-08T09:58:43.984Z,290
2019-06-08T10:00:00.988Z,2280
2019-06-08T10:01:20.826Z,2265
2019-06-08T10:02:33.250Z,2275
2019-06-08T10:03:48.205Z,2460
2019-06-08T10:05:04.392Z,705
2019-06-08T10:06:23.142Z,365
2019-06-08T10:07:41.222Z,620
2019-06-08T10:08:54.163Z,425
2019-06-08T10:10:14.252Z,405
2019-06-08T10:11:24.418Z,740
2019-06-08T10:12:37.709Z,2370
2019-06-08T10:13:56.984Z,2400
2019-06-08T10:15:13.107Z,560
2019-06-08T10:16:27.894Z,470
2019-06-08T10:17:42.667Z,2470
2019-06-08T10:19:06.974Z,2460
2019-06-08T10:20:22.542Z,2440
2019-06-08T10:21:34.899Z,695
2019-06-08T10:22:45.099Z,635
2019-06-08T10:24:05.094Z,495
2019-06-08T10:25:20.520Z,2260
2019-06-08T10:26:32.947Z,2690
2019-06-08T10:27:45.781Z,2710
2019-06-08T10:29:05.209Z,2650
2019-06-08T10:30:19.525Z,2675
2019-06-08T10:31:50.852Z,2670
2019-06-08T10:33:10.025Z,2760
2019-06-08T10:34:22.152Z,2825
2019-06-08T10:35:38.086Z,2790
2019-06-08T10:36:48.436Z,2790
2019-06-08T10:38:14.242Z,2830
2019-06-08T10:39:24.463Z,2840
2019-06-08T10:40:37.996Z,2825
2019-06-08T10:41:53.838Z,2810
2019-06-08T10:43:12.297Z,2825
2019-06-08T10:44:30.851Z,2835
2019-06-08T10:45:41.059Z,2850
2019-06-08T10:46:53.183Z,2870
2019-06-08T10:48:09.671Z,2820
2019-06-08T10:49:28.592Z,2810
2019-06-08T10:50:38.672Z,2810
2019-06-08T10:51:53.515Z,2825
2019-06-08T10:53:16.490Z,2820
2019-06-08T10:54:27.705Z,2820
2019-06-08T10:55:43.075Z,2815
2019-06-08T10:56:57.394Z,2815
2019-06-08T10:58:13.774Z,2890
2019-06-08T10:59:25.852Z,2490
2019-06-08T11:00:38.814Z,2775
2019-06-08T11:01:49.124Z,2790
2019-06-08T11:06:47.802Z,2825
2019-06-08T11:07:59.224Z,2885
2019-06-08T11:09:24.031Z,2930
2019-06-08T11:10:34.183Z,2855
2019-06-08T11:11:47.928Z,2920
2019-06-08T11:13:09.324Z,2845
2019-06-08T11:14:27.637Z,2840
2019-06-08T11:15:40.332Z,2845
2019-06-08T11:16:52.460Z,2915
2019-06-08T11:18:15.255Z,815
2019-06-08T11:19:31.221Z,1490
2019-06-08T11:20:42.820Z,2770
2019-06-08T11:21:57.961Z,2715
2019-06-08T11:23:18.810Z,2750
2019-06-08T11:24:38.577Z,2755
2019-06-08T11:25:51.277Z,2755
2019-06-08T11:27:03.777Z,2740
2019-06-08T11:28:23.445Z,2745
2019-06-08T11:29:38.131Z,2740
2019-06-08T11:30:50.556Z,2780
2019-06-08T11:32:05.765Z,2740
2019-06-08T11:33:19.848Z,370
2019-06-08T11:34:33.604Z,2935
2019-06-08T11:35:45.604Z,2795
2019-06-08T11:37:03.566Z,2770
2019-06-08T11:38:22.845Z,2815
2019-06-08T11:39:38.023Z,940
2019-06-08T11:40:50.290Z,2840
2019-06-08T11:42:02.352Z,2750
2019-06-08T11:43:18.175Z,2705
2019-06-08T11:44:30.083Z,2715
2019-06-08T11:45:42.782Z,2735
2019-06-08T11:46:57.380Z,2705
2019-06-08T11:48:11.282Z,2700
2019-06-08T11:49:27.846Z,2675
2019-06-08T11:50:44.051Z,2645
2019-06-08T11:51:55.179Z,2635
2019-06-08T11:53:15.461Z,2655
2019-06-08T11:54:50.437Z,2640
2019-06-08T11:56:04.691Z,2645
2019-06-08T11:57:20.127Z,2630
2019-06-08T11:58:35.410Z,2660
2019-06-08T11:59:48.445Z,2640
2019-06-08T12:01:05.117Z,2635
2019-06-08T12:02:23.423Z,2620
2019-06-08T12:03:38.517Z,2625
2019-06-08T12:04:49.978Z,2675
2019-06-08T12:06:04.515Z,2695
2019-06-08T12:08:33.462Z,2705
2019-06-08T12:09:43.623Z,2685
2019-06-08T12:11:01.061Z,2705
2019-06-08T12:12:22.965Z,2860
2019-06-08T12:13:35.090Z,530
2019-06-08T12:14:50.102Z,415
2019-06-08T12:16:01.344Z,2705
2019-06-08T12:17:27.146Z,920
2019-06-08T12:18:39.886Z,2705
2019-06-08T12:19:52.480Z,2655
2019-06-08T12:21:08.244Z,2695
2019-06-08T12:22:24.330Z,2515
2019-06-08T12:23:34.523Z,2835
2019-06-08T12:24:51.568Z,475
2019-06-08T12:26:01.713Z,2770
2019-06-08T12:27:42.723Z,590
2019-06-08T12:28:53.542Z,660
2019-06-08T12:30:26.079Z,1580
2019-06-08T12:31:40.225Z,2260
2019-06-08T12:32:52.708Z,2520
2019-06-08T12:34:03.624Z,2550
2019-06-08T12:35:20.582Z,2600
2019-06-08T12:36:37.414Z,1600
2019-06-08T12:37:53.681Z,365
2019-06-08T12:39:05.957Z,455
2019-06-08T12:40:25.565Z,2685
2019-06-08T12:41:42.617Z,2640
2019-06-08T12:42:52.902Z,2675
2019-06-08T12:44:05.011Z,665
2019-06-08T12:45:19.019Z,2580
2019-06-08T12:46:32.926Z,2550
2019-06-08T12:47:47.675Z,2005
2019-06-08T12:49:00.590Z,2520
2019-06-08T12:50:16.570Z,2470
2019-06-08T12:51:30.587Z,2465
2019-06-08T12:52:43.199Z,2500
2019-06-08T12:53:53.485Z,765
2019-06-08T12:55:28.000Z,570
2019-06-08T12:56:40.248Z,2480
2019-06-08T12:57:53.621Z,2460
2019-06-08T12:59:07.734Z,2445
2019-06-08T13:00:24.912Z,2420
2019-06-08T13:01:38.158Z,2470
2019-06-08T13:02:50.939Z,2565
2019-06-08T13:04:03.055Z,2580
2019-06-08T13:05:27.481Z,2380
2019-06-08T13:06:40.881Z,2685
2019-06-08T13:07:52.339Z,555
2019-06-08T13:09:04.969Z,2265
2019-06-08T13:10:22.320Z,2470
2019-06-08T13:11:35.518Z,2410
2019-06-08T13:12:50.475Z,2405
2019-06-08T13:14:00.654Z,2405
2019-06-08T13:15:15.003Z,2435
2019-06-08T13:16:33.231Z,365
2019-06-08T13:17:45.321Z,2460
2019-06-08T13:18:58.665Z,1235
2019-06-08T13:20:12.431Z,2425
2019-06-08T13:21:43.312Z,2235
2019-06-08T13:22:57.513Z,830
2019-06-08T13:24:13.143Z,485
2019-06-08T13:25:50.526Z,595
2019-06-08T13:27:02.761Z,635
2019-06-08T13:28:28.426Z,1400
2019-06-08T13:29:38.721Z,2035
2019-06-08T13:30:50.396Z,2330
2019-06-08T13:32:03.818Z,540
2019-06-08T13:33:16.765Z,390
2019-06-08T13:34:33.241Z,370
2019-06-08T13:35:47.966Z,375
2019-06-08T13:36:58.335Z,520
2019-06-08T13:38:11.017Z,720
2019-06-08T13:39:27.872Z,855
2019-06-08T13:40:42.377Z,2185
2019-06-08T13:41:54.690Z,1025
2019-06-08T13:43:07.945Z,330
2019-06-08T13:44:20.128Z,315
2019-06-08T13:45:35.158Z,320
2019-06-08T13:46:47.938Z,345
2019-06-08T13:48:03.594Z,365
2019-06-08T13:49:19.415Z,355
2019-06-08T13:50:33.456Z,330
2019-06-08T13:51:47.907Z,385
2019-06-08T13:53:01.283Z,745
2019-06-08T13:54:14.771Z,585
2019-06-08T13:56:01.600Z,380
2019-06-08T13:57:13.509Z,885
2019-06-08T13:58:38.203Z,2150
2019-06-08T13:59:53.815Z,2070
2019-06-08T14:01:09.687Z,290
2019-06-08T14:02:33.329Z,2015
2019-06-08T14:03:43.521Z,1695
2019-06-08T14:04:58.937Z,1580
2019-06-08T14:06:10.148Z,1825
2019-06-08T14:07:38.021Z,1805
2019-06-08T14:08:53.167Z,1800
2019-06-08T14:10:05.507Z,1785
2019-06-08T14:11:20.532Z,1825
2019-06-08T14:12:40.785Z,1885
2019-06-08T14:13:52.878Z,310
2019-06-08T14:15:05.560Z,375
2019-06-08T14:16:29.489Z,1840
2019-06-08T14:17:40.389Z,1785
2019-06-08T14:18:51.076Z,1710
2019-06-08T14:20:04.120Z,1725
2019-06-08T14:21:14.364Z,1755
2019-06-08T14:22:32.458Z,1775
2019-06-08T14:23:48.295Z,1775
2019-06-08T14:24:58.543Z,1790
2019-06-08T14:26:10.807Z,1815
2019-06-08T14:27:21.858Z,1815
2019-06-08T14:28:37.941Z,1805
2019-06-08T14:29:48.463Z,1805
2019-06-08T14:31:01.894Z,1300
2019-06-08T14:32:12.715Z,1820
2019-06-08T14:33:38.086Z,395
2019-06-08T14:34:52.449Z,450
2019-06-08T14:36:07.918Z,455
2019-06-08T14:37:18.440Z,700
2019-06-08T14:38:49.268Z,360
2019-06-08T14:39:59.943Z,1610
2019-06-08T14:41:12.375Z,1700
2019-06-08T14:42:33.752Z,1610
2019-06-08T14:43:45.491Z,1575
2019-06-08T14:45:00.233Z,960
2019-06-08T14:46:12.841Z,1495
2019-06-08T14:47:24.752Z,1615
2019-06-08T14:48:45.154Z,1565
2019-06-08T14:49:58.429Z,1560
2019-06-08T14:51:11.285Z,1545
2019-06-08T14:52:29.375Z,275
2019-06-08T14:53:41.199Z,335
2019-06-08T14:54:58.413Z,445
2019-06-08T14:56:18.483Z,1485
2019-06-08T14:57:34.212Z,1480
2019-06-08T14:58:48.167Z,1425
2019-06-08T15:00:12.480Z,1390
2019-06-08T15:01:32.132Z,1400
2019-06-08T15:02:42.899Z,1355
2019-06-08T15:03:55.378Z,980
2019-06-08T15:05:07.628Z,415
2019-06-08T15:06:21.103Z,410
2019-06-08T15:07:41.216Z,335
2019-06-08T15:08:55.192Z,310
2019-06-08T15:10:12.323Z,305
2019-06-08T15:11:23.752Z,290
2019-06-08T15:12:38.373Z,295
2019-06-08T15:13:53.546Z,310
2019-06-08T15:15:05.293Z,305
2019-06-08T15:16:21.573Z,265
2019-06-08T15:17:37.898Z,285
2019-06-08T15:18:48.383Z,280
2019-06-08T15:20:00.942Z,330
2019-06-08T15:21:12.823Z,335
2019-06-08T15:22:24.739Z,315
2019-06-08T15:23:39.766Z,280
2019-06-08T15:24:50.361Z,250
2019-06-08T15:26:00.725Z,220
2019-06-08T15:27:12.751Z,175
2019-06-08T15:28:26.462Z,180
2019-06-08T15:29:50.232Z,200
2019-06-08T15:31:08.303Z,195
2019-06-08T15:32:20.838Z,185
2019-06-08T15:33:40.729Z,170
2019-06-08T15:34:57.635Z,165
2019-06-08T15:36:08.464Z,170
2019-06-08T15:37:21.221Z,185
2019-06-08T15:38:38.022Z,215
2019-06-08T15:39:53.683Z,270
2019-06-08T15:41:04.883Z,280
2019-06-08T15:42:20.411Z,265
2019-06-08T15:43:41.904Z,235
2019-06-08T15:44:52.860Z,195
2019-06-08T15:46:08.292Z,185
2019-06-08T15:47:20.481Z,145
2019-06-08T15:48:38.124Z,135
2019-06-08T15:49:52.757Z,145
2019-06-08T15:51:07.720Z,195
2019-06-08T15:52:19.977Z,190
2019-06-08T15:53:34.768Z,190
2019-06-08T15:54:50.912Z,210
2019-06-08T15:56:03.267Z,185
2019-06-08T15:57:13.404Z,160
2019-06-08T15:58:25.475Z,175
2019-06-08T15:59:49.176Z,195
2019-06-08T16:01:02.950Z,190
2019-06-08T16:02:13.130Z,175
2019-06-08T16:03:23.260Z,150
2019-06-08T16:04:36.281Z,140
2019-06-08T16:05:46.488Z,135
2019-06-08T16:07:00.208Z,135
2019-06-08T16:08:13.225Z,130
2019-06-08T16:09:23.953Z,135
2019-06-08T16:10:36.702Z,140
2019-06-08T16:11:46.831Z,145
2019-06-08T16:12:56.971Z,140
2019-06-08T16:14:07.211Z,145
2019-06-08T16:15:17.644Z,160
2019-06-08T16:16:28.947Z,180
2019-06-08T16:17:40.782Z,175
2019-06-08T16:18:50.985Z,180
2019-06-08T16:20:03.022Z,180
2019-06-08T16:21:13.191Z,180
2019-06-08T16:22:23.386Z,165
2019-06-08T16:23:36.176Z,145
2019-06-08T16:24:45.955Z,130
2019-06-08T16:25:56.139Z,115
2019-06-08T16:27:05.949Z,115
2019-06-08T16:28:16.139Z,125
2019-06-08T16:29:26.764Z,115
2019-06-08T16:30:39.335Z,120
2019-06-08T16:31:49.587Z,115
2019-06-08T16:32:59.863Z,115
2019-06-08T16:34:10.025Z,110
2019-06-08T16:35:20.166Z,95
2019-06-08T16:36:31.458Z,90
2019-06-08T16:37:42.919Z,90
2019-06-08T16:38:55.410Z,90
2019-06-08T16:40:05.854Z,90
2019-06-08T16:41:16.997Z,90
2019-06-08T16:42:27.844Z,90
2019-06-08T16:43:39.954Z,85
2019-06-08T16:44:50.126Z,85
2019-06-08T16:46:00.278Z,85
2019-06-08T16:47:13.314Z,85
2019-06-08T16:49:42.097Z,85
2019-06-08T16:50:52.257Z,85
2019-06-08T16:52:02.444Z,85
2019-06-08T16:53:12.575Z,85
2019-06-08T16:54:22.623Z,85
2019-06-08T16:55:34.479Z,85
2019-06-08T16:56:47.248Z,85
2019-06-08T16:57:57.393Z,85
2019-06-08T16:59:07.537Z,85
2019-06-08T17:00:49.521Z,80
2019-06-08T17:01:59.724Z,80
2019-06-08T17:03:09.887Z,80
2019-06-08T17:04:19.855Z,80
2019-06-08T17:05:31.307Z,80
2019-06-08T17:06:42.523Z,85
2019-06-08T17:07:52.674Z,85
2019-06-08T17:09:02.809Z,85
2019-06-08T17:10:12.955Z,85
2019-06-08T17:11:23.086Z,95